Time;durP1;ratioP1;P1;durP2;ratioP2;P2;SDS_P1;SDS_P2;PMS_P1;PMS_P2;Temp;Humidity;BMP_temperature;BMP_pressure;BME280_temperature;BME280_humidity;BME280_pressure;Samples;Min_cycle;Max_cycle;Signal;HPM_P1;HPM_P2
2022/03/02 00:00:27;;;;;;;12.83;8.70;;;1.00;93.90;;;;;;5092415;28;20736;-59
2022/03/02 00:02:54;;;;;;;11.87;8.10;;;1.00;93.80;;;;;;5092573;28;20295;-60
2022/03/02 00:05:21;;;;;;;10.73;8.00;;;1.10;93.70;;;;;;5092398;28;20204;-60
2022/03/02 00:07:47;;;;;;;11.07;7.73;;;1.10;93.60;;;;;;5092794;28;20860;-60
2022/03/02 00:10:14;;;;;;;11.33;7.60;;;1.10;93.60;;;;;;5092362;28;20207;-60
2022/03/02 00:12:42;;;;;;;12.83;7.27;;;1.20;93.50;;;;;;5092448;28;20204;-60
2022/03/02 00:15:09;;;;;;;10.00;7.17;;;1.20;93.40;;;;;;5092826;28;20204;-61
2022/03/02 00:17:36;;;;;;;10.40;7.63;;;1.30;93.30;;;;;;5092463;28;20232;-61
2022/03/02 00:20:03;;;;;;;10.43;7.43;;;1.30;93.30;;;;;;5092066;28;20212;-58
2022/03/02 00:22:30;;;;;;;9.17;6.60;;;1.30;93.20;;;;;;5092484;28;20205;-63
2022/03/02 00:24:57;;;;;;;9.67;7.27;;;1.30;93.30;;;;;;5092282;28;20215;-59
2022/03/02 00:27:24;;;;;;;12.37;7.80;;;1.20;93.30;;;;;;5092422;28;20238;-58
2022/03/02 00:29:52;;;;;;;11.87;7.33;;;1.20;93.40;;;;;;5092466;28;20655;-59
2022/03/02 00:32:19;;;;;;;12.07;7.50;;;1.10;93.60;;;;;;5092545;28;20207;-59
2022/03/02 00:34:46;;;;;;;10.73;7.27;;;1.00;93.60;;;;;;5092391;28;20208;-59
2022/03/02 00:37:14;;;;;;;12.20;7.40;;;1.00;93.80;;;;;;5092170;28;20260;-59
2022/03/02 00:39:41;;;;;;;10.80;7.00;;;1.00;93.90;;;;;;5092238;28;20204;-59
2022/03/02 00:42:08;;;;;;;13.57;7.47;;;1.10;93.80;;;;;;5092358;28;20204;-60
2022/03/02 00:44:35;;;;;;;10.23;7.47;;;1.30;93.60;;;;;;5092318;28;20204;-61
2022/03/02 00:47:05;;;;;;;11.60;7.20;;;1.40;93.50;;;;;;5092205;28;20224;-60
2022/03/02 00:49:32;;;;;;;9.80;6.80;;;1.50;93.30;;;;;;5094339;28;20204;-59
2022/03/02 00:52:00;;;;;;;12.10;6.40;;;1.60;93.10;;;;;;5095777;28;20586;-60
2022/03/02 00:54:26;;;;;;;9.17;7.23;;;1.70;93.00;;;;;;5095847;28;20557;-59
2022/03/02 00:56:53;;;;;;;11.23;6.70;;;1.80;92.70;;;;;;5095981;28;20204;-60
2022/03/02 00:59:20;;;;;;;9.90;7.00;;;1.90;92.70;;;;;;5095364;28;20684;-60
2022/03/02 01:01:46;;;;;;;11.00;7.23;;;1.90;92.80;;;;;;5095461;28;20208;-59
2022/03/02 01:04:15;;;;;;;13.03;6.67;;;1.90;92.80;;;;;;5095465;28;20624;-60
2022/03/02 01:06:41;;;;;;;8.53;6.67;;;1.80;92.70;;;;;;5095314;28;20223;-59
2022/03/02 01:09:08;;;;;;;8.80;6.77;;;1.80;92.70;;;;;;5095173;28;20699;-58
2022/03/02 01:11:35;;;;;;;8.63;6.23;;;1.90;92.70;;;;;;5095344;28;20218;-59
2022/03/02 01:14:02;;;;;;;8.70;5.97;;;2.00;92.50;;;;;;5095346;28;20208;-60
2022/03/02 01:16:29;;;;;;;10.27;6.60;;;2.00;92.20;;;;;;5095269;28;20634;-59
2022/03/02 01:18:56;;;;;;;8.97;6.20;;;2.10;92.10;;;;;;5095108;28;20236;-59
2022/03/02 01:21:24;;;;;;;9.43;6.20;;;2.20;92.00;;;;;;5095213;28;20695;-59
2022/03/02 01:23:53;;;;;;;9.30;6.40;;;2.20;91.70;;;;;;5095098;28;20196;-59
2022/03/02 01:26:20;;;;;;;10.53;5.90;;;2.20;91.80;;;;;;5094951;28;20232;-60
2022/03/02 01:28:47;;;;;;;10.53;6.30;;;2.30;91.50;;;;;;5094789;28;20637;-58
2022/03/02 01:31:14;;;;;;;8.63;5.97;;;2.30;91.50;;;;;;5094840;28;20212;-62
2022/03/02 01:33:41;;;;;;;9.60;6.23;;;2.40;91.30;;;;;;5094955;28;20567;-59
2022/03/02 01:36:07;;;;;;;8.80;6.83;;;2.40;91.20;;;;;;5095193;28;20204;-58
2022/03/02 01:38:35;;;;;;;11.30;6.93;;;2.50;91.20;;;;;;5094698;28;20255;-59
2022/03/02 01:41:02;;;;;;;10.97;6.70;;;2.60;91.10;;;;;;5095116;28;20204;-60
2022/03/02 01:43:29;;;;;;;8.10;6.40;;;2.60;91.10;;;;;;5095199;28;20582;-59
2022/03/02 01:45:55;;;;;;;9.53;6.63;;;2.70;91.10;;;;;;5094445;28;20660;-59
2022/03/02 01:48:22;;;;;;;10.80;6.60;;;2.70;91.60;;;;;;5094560;28;20234;-60
2022/03/02 01:50:49;;;;;;;10.60;6.93;;;2.50;92.30;;;;;;5094703;28;20551;-59
2022/03/02 01:53:16;;;;;;;11.43;6.50;;;2.40;92.60;;;;;;5094831;28;20207;-59
2022/03/02 01:55:44;;;;;;;8.53;6.40;;;2.50;92.60;;;;;;5094886;28;20547;-59
2022/03/02 01:58:11;;;;;;;7.97;6.33;;;2.50;92.80;;;;;;5094436;28;20277;-60
2022/03/02 02:00:37;;;;;;;9.73;6.87;;;2.40;93.30;;;;;;5094333;28;20208;-60
2022/03/02 02:03:04;;;;;;;11.47;7.13;;;2.40;93.40;;;;;;5094814;28;20668;-58
2022/03/02 02:05:31;;;;;;;9.50;7.17;;;2.40;93.30;;;;;;5094695;28;20552;-60
2022/03/02 02:07:58;;;;;;;11.23;6.83;;;2.40;93.40;;;;;;5094258;28;20254;-59
2022/03/02 02:10:25;;;;;;;10.03;7.23;;;2.30;93.60;;;;;;5094164;28;20208;-59
2022/03/02 02:12:53;;;;;;;9.43;6.77;;;2.40;93.60;;;;;;5094496;28;20208;-59
2022/03/02 02:15:19;;;;;;;9.33;6.93;;;2.30;93.30;;;;;;5094793;28;20212;-59
2022/03/02 02:17:46;;;;;;;9.20;7.00;;;2.40;93.50;;;;;;5094306;28;20224;-59
2022/03/02 02:20:13;;;;;;;9.43;7.17;;;2.40;93.40;;;;;;5094398;28;20262;-58
2022/03/02 02:22:43;;;;;;;9.63;7.53;;;2.40;93.40;;;;;;5094343;28;20200;-58
2022/03/02 02:25:11;;;;;;;11.77;7.20;;;2.30;93.40;;;;;;5093999;28;20653;-59
2022/03/02 02:27:39;;;;;;;10.43;7.37;;;2.30;93.40;;;;;;5093674;28;20228;-59
2022/03/02 02:30:06;;;;;;;10.83;7.27;;;2.30;93.50;;;;;;5093793;28;20209;-59
2022/03/02 02:32:36;;;;;;;11.53;7.50;;;2.30;93.70;;;;;;5093932;28;20273;-58
2022/03/02 02:35:02;;;;;;;8.93;6.63;;;2.20;93.70;;;;;;5094822;28;20209;-59
2022/03/02 02:37:29;;;;;;;8.87;6.37;;;2.20;93.70;;;;;;5094516;28;20508;-59
2022/03/02 02:40:00;;;;;;;8.43;6.10;;;2.00;93.50;;;;;;5094069;28;20200;-59
2022/03/02 02:42:27;;;;;;;8.00;6.20;;;2.00;93.30;;;;;;5094627;28;20220;-59
2022/03/02 02:44:54;;;;;;;9.03;5.60;;;1.90;93.40;;;;;;5094484;28;20205;-59
2022/03/02 02:47:21;;;;;;;10.23;6.07;;;1.90;93.50;;;;;;5094068;28;20232;-59
2022/03/02 02:49:49;;;;;;;8.03;5.90;;;1.90;93.60;;;;;;5093849;28;20660;-59
2022/03/02 02:52:16;;;;;;;10.43;5.63;;;1.90;93.70;;;;;;5093867;28;20230;-58
2022/03/02 02:54:43;;;;;;;8.80;5.90;;;1.80;93.90;;;;;;5093570;28;20208;-59
2022/03/02 02:57:11;;;;;;;9.97;5.90;;;1.80;93.90;;;;;;5093855;28;20220;-59
2022/03/02 02:59:38;;;;;;;8.87;5.50;;;1.80;93.90;;;;;;5093465;28;20211;-59
2022/03/02 03:02:05;;;;;;;9.53;6.93;;;1.70;94.00;;;;;;5093962;28;20208;-59
2022/03/02 03:04:32;;;;;;;9.37;6.60;;;1.60;94.50;;;;;;5094615;28;20212;-59
2022/03/02 03:06:59;;;;;;;9.43;7.67;;;1.40;94.90;;;;;;5094964;28;20231;-59
2022/03/02 03:09:25;;;;;;;12.53;7.70;;;1.30;95.30;;;;;;5094749;28;20227;-59
2022/03/02 03:11:52;;;;;;;12.17;7.90;;;1.10;95.70;;;;;;5094665;28;20220;-60
2022/03/02 03:14:20;;;;;;;9.60;7.47;;;1.00;96.20;;;;;;5093203;28;20281;-60
2022/03/02 03:16:47;;;;;;;11.17;8.30;;;0.90;96.40;;;;;;5092780;28;20200;-59
2022/03/02 03:19:14;;;;;;;14.10;8.10;;;0.80;96.40;;;;;;5096548;22;20231;-61
2022/03/02 03:21:40;;;;;;;14.83;8.20;;;0.80;96.30;;;;;;5086104;28;20202;-61
2022/03/02 03:24:07;;;;;;;12.17;8.33;;;0.80;96.20;;;;;;5092656;28;20204;-61
2022/03/02 03:26:34;;;;;;;11.87;8.57;;;0.80;96.00;;;;;;5092513;28;20208;-61
2022/03/02 03:29:00;;;;;;;11.17;8.43;;;0.80;95.80;;;;;;5091878;28;20711;-61
2022/03/02 03:31:28;;;;;;;10.87;8.33;;;0.90;95.70;;;;;;5092510;28;20208;-61
2022/03/02 03:33:55;;;;;;;11.43;8.27;;;0.90;95.70;;;;;;5092245;28;20208;-61
2022/03/02 03:36:22;;;;;;;12.60;8.27;;;0.90;95.80;;;;;;5092167;28;20208;-61
2022/03/02 03:38:49;;;;;;;12.57;8.83;;;0.90;95.70;;;;;;5091768;28;20586;-61
2022/03/02 03:41:15;;;;;;;15.23;9.43;;;0.90;95.80;;;;;;5092255;28;20204;-61
2022/03/02 03:43:43;;;;;;;17.93;9.47;;;0.90;95.80;;;;;;5092159;28;20205;-61
2022/03/02 03:46:09;;;;;;;15.70;9.20;;;0.90;96.00;;;;;;5091996;28;20204;-61
2022/03/02 03:48:38;;;;;;;12.23;9.33;;;0.80;96.20;;;;;;5091609;28;20642;-61
2022/03/02 03:51:06;;;;;;;14.00;9.40;;;0.80;96.20;;;;;;5091922;28;20566;-61
2022/03/02 03:53:33;;;;;;;15.23;8.77;;;0.80;96.40;;;;;;5092217;28;20199;-61
2022/03/02 03:56:00;;;;;;;13.80;9.20;;;0.70;96.60;;;;;;5092026;28;20212;-61
2022/03/02 03:58:26;;;;;;;13.53;8.80;;;0.60;96.60;;;;;;5091685;28;20703;-61
2022/03/02 04:00:53;;;;;;;11.57;8.27;;;0.70;96.70;;;;;;5092546;28;20663;-61
2022/03/02 04:03:20;;;;;;;13.30;9.00;;;0.70;96.70;;;;;;5092059;28;20216;-61
2022/03/02 04:05:48;;;;;;;10.83;8.00;;;0.70;96.70;;;;;;5091858;28;20207;-61
2022/03/02 04:08:15;;;;;;;11.80;7.37;;;0.70;96.60;;;;;;5092241;28;20655;-60
2022/03/02 04:10:42;;;;;;;8.40;6.97;;;0.70;96.50;;;;;;5091923;28;20269;-61
2022/03/02 04:13:09;;;;;;;7.87;6.13;;;0.70;96.50;;;;;;5091886;28;20208;-60
2022/03/02 04:15:37;;;;;;;10.80;7.13;;;0.50;96.40;;;;;;5091871;28;20208;-61
2022/03/02 04:18:06;;;;;;;11.53;7.90;;;0.50;96.40;;;;;;5091683;28;20258;-61
2022/03/02 04:20:33;;;;;;;10.40;7.03;;;0.40;96.40;;;;;;5091629;28;20261;-61
2022/03/02 04:23:01;;;;;;;10.73;6.83;;;0.40;96.70;;;;;;5091905;28;20204;-61
2022/03/02 04:25:28;;;;;;;9.83;6.87;;;0.30;96.50;;;;;;5095794;28;20261;-61
2022/03/02 04:27:54;;;;;;;11.00;7.10;;;0.30;96.60;;;;;;5095564;28;20242;-61
2022/03/02 04:30:21;;;;;;;11.27;7.00;;;0.20;96.60;;;;;;5095536;28;20208;-61
2022/03/02 04:32:48;;;;;;;10.10;7.40;;;0.10;96.60;;;;;;5095650;28;20231;-61
2022/03/02 04:35:15;;;;;;;10.57;7.07;;;0.10;96.80;;;;;;5095782;28;20204;-61
2022/03/02 04:37:43;;;;;;;10.43;6.67;;;0.00;96.90;;;;;;5095343;28;20228;-61
2022/03/02 04:40:13;;;;;;;9.60;6.40;;;0.00;96.90;;;;;;5095495;28;20236;-61
2022/03/02 04:42:40;;;;;;;11.67;7.13;;;0.10;97.00;;;;;;5095589;28;20265;-61
2022/03/02 04:45:07;;;;;;;12.83;8.20;;;0.10;96.90;;;;;;5095469;28;20215;-61
2022/03/02 04:47:34;;;;;;;11.43;7.40;;;0.10;96.80;;;;;;5095584;28;20228;-62
2022/03/02 04:50:00;;;;;;;16.17;9.90;;;0.10;96.80;;;;;;5095341;28;20200;-61
2022/03/02 04:52:28;;;;;;;19.17;11.87;;;0.20;96.80;;;;;;5095469;28;20205;-60
2022/03/02 04:55:06;;;;;;;16.00;10.10;;;0.20;96.60;;;;;;5095295;28;20306;-61
2022/03/02 04:57:36;;;;;;;11.47;8.20;;;0.20;96.50;;;;;;5095162;28;20224;-60
2022/03/02 05:00:05;;;;;;;13.17;7.93;;;0.30;96.60;;;;;;5095141;28;20260;-60
2022/03/02 05:02:32;;;;;;;11.67;7.33;;;0.30;96.60;;;;;;5095266;28;20266;-60
2022/03/02 05:04:58;;;;;;;12.20;7.63;;;0.40;96.60;;;;;;5095284;28;20630;-60
2022/03/02 05:07:25;;;;;;;11.43;7.67;;;0.40;96.80;;;;;;5095040;28;20606;-60
2022/03/02 05:09:52;;;;;;;10.97;7.73;;;0.40;97.00;;;;;;5094833;28;20207;-60
2022/03/02 05:12:18;;;;;;;14.53;9.07;;;0.40;97.10;;;;;;5094858;28;20204;-60
2022/03/02 05:14:46;;;;;;;15.00;9.40;;;0.30;97.00;;;;;;5094987;28;20204;-63
2022/03/02 05:17:13;;;;;;;10.10;7.77;;;0.30;97.00;;;;;;5094774;28;20200;-60
2022/03/02 05:19:40;;;;;;;33.87;18.47;;;0.40;97.10;;;;;;5094741;28;20211;-61
2022/03/02 05:22:06;;;;;;;20.13;12.27;;;0.30;97.10;;;;;;5094779;28;20294;-63
2022/03/02 05:24:33;;;;;;;15.77;9.83;;;0.40;97.20;;;;;;5094641;28;20504;-60
2022/03/02 05:27:00;;;;;;;13.23;9.17;;;0.30;97.20;;;;;;5094841;28;20263;-60
2022/03/02 05:29:26;;;;;;;16.80;10.53;;;0.40;97.20;;;;;;5094617;28;20232;-60
2022/03/02 05:31:54;;;;;;;16.17;8.23;;;0.40;97.20;;;;;;5094743;28;20233;-64
2022/03/02 05:34:21;;;;;;;10.93;8.27;;;0.40;97.30;;;;;;5094200;28;20299;-60
2022/03/02 05:36:48;;;;;;;38.10;20.57;;;0.40;97.40;;;;;;5094365;28;20204;-60
2022/03/02 05:39:15;;;;;;;18.90;10.50;;;0.40;97.30;;;;;;5093989;28;20224;-59
2022/03/02 05:41:41;;;;;;;12.60;8.63;;;0.40;97.30;;;;;;5094567;28;20216;-60
2022/03/02 05:44:08;;;;;;;12.00;7.27;;;0.40;97.40;;;;;;5094260;28;20583;-60
2022/03/02 05:46:35;;;;;;;10.87;7.33;;;0.40;97.40;;;;;;5094389;28;20253;-60
2022/03/02 05:49:04;;;;;;;11.97;7.20;;;0.40;97.70;;;;;;5094013;28;20262;-60
2022/03/02 05:51:31;;;;;;;10.13;6.80;;;0.30;97.10;;;;;;5094312;28;20207;-62
2022/03/02 05:53:58;;;;;;;14.17;7.37;;;0.20;96.90;;;;;;5094003;28;20290;-60
2022/03/02 05:56:25;;;;;;;11.87;6.57;;;0.10;96.90;;;;;;5094046;28;20668;-60
2022/03/02 05:58:52;;;;;;;11.80;6.60;;;0.00;96.90;;;;;;5093806;28;20303;-60
2022/03/02 06:01:18;;;;;;;10.90;6.47;;;0.00;96.90;;;;;;5094207;28;20212;-60
2022/03/02 06:03:45;;;;;;;10.77;6.63;;;0.00;96.90;;;;;;5093879;28;20238;-60
2022/03/02 06:06:14;;;;;;;9.37;5.90;;;-0.10;96.90;;;;;;5093816;28;20680;-60
2022/03/02 06:08:40;;;;;;;12.07;7.57;;;-0.10;97.10;;;;;;5093168;28;20764;-60
2022/03/02 06:11:08;;;;;;;13.13;8.43;;;-0.10;97.20;;;;;;5093942;28;20695;-60
2022/03/02 06:13:35;;;;;;;13.63;8.40;;;-0.20;97.30;;;;;;5093984;28;20200;-61
2022/03/02 06:16:02;;;;;;;11.37;8.27;;;-0.30;97.50;;;;;;5093601;28;20210;-61
2022/03/02 06:18:30;;;;;;;13.47;8.10;;;-0.40;97.70;;;;;;5093208;28;20224;-61
2022/03/02 06:21:00;;;;;;;13.07;8.00;;;-0.50;97.80;;;;;;5093319;28;20287;-61
2022/03/02 06:23:29;;;;;;;14.47;7.40;;;-0.60;98.00;;;;;;5094018;28;20204;-61
2022/03/02 06:25:57;;;;;;;9.63;6.70;;;-0.50;98.00;;;;;;5093585;28;20532;-61
2022/03/02 06:28:24;;;;;;;12.00;6.90;;;-0.50;97.90;;;;;;5093378;28;20320;-61
2022/03/02 06:30:51;;;;;;;9.50;6.20;;;-0.20;97.80;;;;;;5093045;28;20204;-61
2022/03/02 06:33:20;;;;;;;9.17;7.10;;;0.10;97.50;;;;;;5093446;28;20200;-61
2022/03/02 06:35:47;;;;;;;13.97;7.17;;;0.50;97.30;;;;;;5092948;28;20210;-61
2022/03/02 06:38:14;;;;;;;12.23;6.90;;;0.80;96.80;;;;;;5093521;28;20270;-60
2022/03/02 06:40:57;;;;;;;10.00;6.70;;;0.90;96.60;;;;;;5093118;28;20258;-61
2022/03/02 06:43:26;;;;;;;8.40;6.47;;;1.10;96.50;;;;;;5093224;28;20250;-61
2022/03/02 06:45:58;;;;;;;11.27;6.60;;;1.40;96.00;;;;;;5092444;28;20204;-61
2022/03/02 06:48:28;;;;;;;11.03;7.33;;;1.70;95.70;;;;;;5092785;28;20652;-63
2022/03/02 06:50:58;;;;;;;10.30;6.37;;;2.00;95.30;;;;;;5092587;28;20261;-61
2022/03/02 06:53:32;;;;;;;10.43;7.17;;;2.10;94.70;;;;;;5092502;28;20262;-61
2022/03/02 06:56:01;;;;;;;8.93;6.27;;;2.30;94.60;;;;;;5092579;28;20596;-61
2022/03/02 06:58:29;;;;;;;8.13;6.30;;;2.50;94.60;;;;;;5092867;28;20224;-61
2022/03/02 07:00:58;;;;;;;10.23;6.93;;;2.90;94.60;;;;;;5092590;28;20330;-61
2022/03/02 07:03:29;;;;;;;8.53;6.20;;;3.10;93.90;;;;;;5092298;28;20679;-62
2022/03/02 07:05:56;;;;;;;8.07;5.90;;;3.40;93.40;;;;;;5092325;28;20593;-61
2022/03/02 07:08:25;;;;;;;12.70;6.50;;;3.80;91.50;;;;;;5092163;28;20223;-61
2022/03/02 07:10:52;;;;;;;9.77;5.97;;;4.00;91.30;;;;;;5092523;28;20204;-62
2022/03/02 07:13:22;;;;;;;8.87;5.77;;;3.90;91.20;;;;;;5094778;28;20236;-62
2022/03/02 07:15:52;;;;;;;11.20;6.53;;;3.90;91.20;;;;;;5093170;28;20562;-61
2022/03/02 07:18:19;;;;;;;11.10;6.70;;;3.90;91.30;;;;;;5092746;28;20794;-61
2022/03/02 07:20:47;;;;;;;10.67;6.30;;;4.00;91.00;;;;;;5093351;28;20212;-61
2022/03/02 07:23:16;;;;;;;10.23;6.27;;;4.00;91.00;;;;;;5092941;28;20216;-61
2022/03/02 07:25:45;;;;;;;6.97;5.83;;;4.10;91.20;;;;;;5092568;28;20201;-62
2022/03/02 07:28:12;;;;;;;8.97;6.20;;;4.30;91.30;;;;;;5092407;28;20318;-62
2022/03/02 07:30:41;;;;;;;10.67;6.43;;;4.40;91.10;;;;;;5092556;28;20204;-62
2022/03/02 07:33:08;;;;;;;8.40;6.63;;;4.60;91.00;;;;;;5092588;28;20204;-62
2022/03/02 07:35:36;;;;;;;8.87;5.97;;;4.80;90.70;;;;;;5092313;28;20204;-62
2022/03/02 07:38:05;;;;;;;7.77;5.57;;;4.90;90.40;;;;;;5091959;28;20227;-63
2022/03/02 07:40:31;;;;;;;7.10;5.40;;;5.00;90.00;;;;;;5092414;28;20261;-63
2022/03/02 07:42:59;;;;;;;9.23;6.93;;;5.00;89.50;;;;;;5091678;28;20690;-62
2022/03/02 07:45:26;;;;;;;9.40;6.10;;;5.10;90.00;;;;;;5092370;28;20215;-62
2022/03/02 07:47:56;;;;;;;8.17;6.07;;;5.20;90.00;;;;;;5092046;28;20228;-62
2022/03/02 07:50:24;;;;;;;7.60;6.00;;;5.30;89.60;;;;;;5091965;28;20784;-62
2022/03/02 07:52:52;;;;;;;10.07;6.53;;;5.50;89.30;;;;;;5092351;28;20486;-62
2022/03/02 07:55:19;;;;;;;12.03;7.00;;;5.70;90.00;;;;;;5092764;28;20215;-61
2022/03/02 07:57:51;;;;;;;13.03;6.87;;;5.80;90.80;;;;;;5092656;28;20220;-61
2022/03/02 08:00:18;;;;;;;11.50;6.30;;;5.10;91.80;;;;;;5092491;28;20204;-61
2022/03/02 08:02:48;;;;;;;13.87;6.67;;;5.00;92.20;;;;;;5092842;28;20201;-60
2022/03/02 08:05:18;;;;;;;14.00;7.17;;;5.10;92.10;;;;;;5093334;28;20246;-61
2022/03/02 08:07:46;;;;;;;15.43;6.90;;;5.40;91.70;;;;;;5092416;28;20224;-61
2022/03/02 08:10:15;;;;;;;15.80;7.17;;;5.40;91.20;;;;;;5091696;28;20305;-60
2022/03/02 08:12:42;;;;;;;12.67;7.17;;;5.50;90.80;;;;;;5091567;28;20676;-60
2022/03/02 08:15:10;;;;;;;10.20;6.67;;;5.80;90.70;;;;;;5091935;28;20208;-65
2022/03/02 08:17:36;;;;;;;12.10;6.80;;;5.90;90.50;;;;;;5091767;28;20285;-60
2022/03/02 08:20:04;;;;;;;12.13;8.27;;;6.10;90.40;;;;;;5091640;28;20204;-61
2022/03/02 08:22:35;;;;;;;12.87;6.70;;;6.40;90.10;;;;;;5091816;28;20204;-62
2022/03/02 08:25:07;;;;;;;14.60;7.53;;;6.60;89.60;;;;;;5091599;28;20737;-59
2022/03/02 08:27:34;;;;;;;11.13;7.50;;;6.70;89.50;;;;;;5091747;28;20666;-63
2022/03/02 08:30:02;;;;;;;9.53;6.97;;;6.80;89.40;;;;;;5091503;28;20228;-61
2022/03/02 08:32:35;;;;;;;11.53;7.40;;;7.20;88.00;;;;;;5092194;28;20204;-62
2022/03/02 08:35:02;;;;;;;9.43;6.33;;;7.40;85.80;;;;;;5091658;28;20311;-62
2022/03/02 08:37:32;;;;;;;10.30;6.83;;;7.70;82.50;;;;;;5092179;28;20250;-60
2022/03/02 08:40:00;;;;;;;9.33;6.40;;;8.10;82.60;;;;;;5092103;28;20632;-61
2022/03/02 08:42:27;;;;;;;7.63;6.00;;;8.00;79.80;;;;;;5091659;28;20208;-61
2022/03/02 08:44:55;;;;;;;9.97;6.97;;;7.90;80.00;;;;;;5091515;28;20261;-62
2022/03/02 08:47:23;;;;;;;10.13;6.83;;;8.00;79.20;;;;;;5091619;28;20307;-61
2022/03/02 08:49:50;;;;;;;6.07;5.33;;;8.20;78.40;;;;;;5091421;28;20309;-61
2022/03/02 08:52:18;;;;;;;10.80;5.77;;;8.30;77.20;;;;;;5091730;28;20257;-61
2022/03/02 08:54:48;;;;;;;8.17;5.93;;;8.40;76.80;;;;;;5091692;28;20204;-61
2022/03/02 08:57:16;;;;;;;8.30;5.60;;;8.60;75.40;;;;;;5091412;28;20664;-61
2022/03/02 08:59:43;;;;;;;7.73;5.30;;;8.50;74.00;;;;;;5091227;28;20201;-61
2022/03/02 09:02:10;;;;;;;6.57;5.00;;;8.40;74.00;;;;;;5091563;28;20200;-61
2022/03/02 09:04:39;;;;;;;7.27;5.70;;;8.30;73.40;;;;;;5091899;28;20208;-61
2022/03/02 09:07:06;;;;;;;11.20;6.07;;;8.30;73.70;;;;;;5091344;28;20581;-61
2022/03/02 09:09:33;;;;;;;6.63;5.33;;;8.20;73.60;;;;;;5092119;28;20231;-62
2022/03/02 09:12:03;;;;;;;14.40;8.43;;;8.30;74.10;;;;;;5095189;28;20261;-60
2022/03/02 09:14:30;;;;;;;9.97;6.63;;;8.30;74.70;;;;;;5095359;28;20205;-60
2022/03/02 09:16:56;;;;;;;8.53;6.10;;;8.30;73.70;;;;;;5095204;28;20227;-62
2022/03/02 09:19:23;;;;;;;10.17;6.60;;;8.40;73.30;;;;;;5121160;22;20231;-62
2022/03/02 09:21:50;;;;;;;9.10;5.90;;;8.30;73.50;;;;;;5115893;28;20580;-62
2022/03/02 09:24:18;;;;;;;8.63;5.47;;;8.50;74.40;;;;;;5120951;28;20642;-62
2022/03/02 09:26:46;;;;;;;8.18;5.97;;;8.60;73.30;;;;;;5112669;28;20443;-63
2022/03/02 09:29:17;;;;;;;8.53;5.80;;;8.70;72.70;;;;;;5115085;28;20743;-65
2022/03/02 09:31:49;;;;;;;9.60;5.47;;;8.90;71.80;;;;;;5115540;27;20290;-61
2022/03/02 09:34:18;;;;;;;7.60;5.57;;;9.20;71.90;;;;;;5093070;28;20204;-60
2022/03/02 09:36:47;;;;;;;7.27;5.90;;;9.40;71.70;;;;;;5094357;28;20215;-61
2022/03/02 09:39:14;;;;;;;7.60;6.00;;;9.60;71.90;;;;;;5094476;28;20220;-60
2022/03/02 09:41:49;;;;;;;8.97;5.30;;;10.00;69.70;;;;;;5095038;28;20209;-62
2022/03/02 09:44:19;;;;;;;8.27;5.67;;;10.20;69.20;;;;;;5094660;28;20222;-64
2022/03/02 09:46:51;;;;;;;9.47;6.70;;;10.50;68.80;;;;;;5094413;28;20212;-61
2022/03/02 09:49:21;;;;;;;7.53;5.73;;;10.70;68.30;;;;;;5093579;28;20281;-63
2022/03/02 09:51:53;;;;;;;8.27;6.13;;;10.90;67.50;;;;;;5094383;28;20205;-60
2022/03/02 09:54:22;;;;;;;10.00;5.70;;;11.10;67.20;;;;;;5094455;28;20208;-62
2022/03/02 09:56:51;;;;;;;8.37;6.07;;;11.30;66.60;;;;;;5094904;28;20281;-63
2022/03/02 09:59:19;;;;;;;9.13;6.03;;;11.60;66.70;;;;;;5093949;28;20708;-62
2022/03/02 10:01:48;;;;;;;10.73;5.67;;;11.90;65.60;;;;;;5094353;28;20211;-67
2022/03/02 10:04:22;;;;;;;6.77;6.07;;;12.10;65.70;;;;;;5094513;28;20208;-65
2022/03/02 10:06:51;;;;;;;9.97;6.20;;;12.20;66.50;;;;;;5094254;28;20204;-63
2022/03/02 10:09:20;;;;;;;10.53;6.30;;;12.00;67.70;;;;;;5093720;28;20281;-61
2022/03/02 10:11:48;;;;;;;10.83;6.30;;;12.00;67.90;;;;;;5094335;28;20226;-61
2022/03/02 10:14:20;;;;;;;12.90;6.87;;;12.20;68.30;;;;;;5093638;28;20280;-61
2022/03/02 10:16:49;;;;;;;10.60;6.90;;;12.40;67.50;;;;;;5094277;28;20313;-61
2022/03/02 10:19:23;;;;;;;7.47;6.40;;;12.30;66.00;;;;;;5093219;28;20246;-61
2022/03/02 10:22:06;;;;;;;10.33;6.67;;;12.20;66.30;;;;;;5093125;28;20231;-61
2022/03/02 10:24:44;;;;;;;8.63;6.20;;;11.90;67.50;;;;;;5093624;28;20212;-61
2022/03/02 10:27:31;;;;;;;8.53;6.43;;;11.70;67.30;;;;;;5093931;28;20216;-62
2022/03/02 10:30:06;;;;;;;8.20;6.27;;;11.60;67.80;;;;;;5093581;28;20318;-61
2022/03/02 10:32:35;;;;;;;11.03;6.90;;;12.00;67.50;;;;;;5093584;28;20207;-61
2022/03/02 10:35:06;;;;;;;12.13;7.00;;;12.30;65.70;;;;;;5093131;28;20559;-61
2022/03/02 10:37:35;;;;;;;11.80;7.50;;;12.40;65.80;;;;;;5093102;28;20663;-61
2022/03/02 10:40:13;;;;;;;8.73;6.97;;;12.60;65.20;;;;;;5093434;28;20204;-61
2022/03/02 10:42:42;;;;;;;23.73;16.77;;;13.00;64.90;;;;;;5093485;28;20204;-62
2022/03/02 10:45:14;;;;;;;8.70;6.73;;;13.20;62.90;;;;;;5093372;28;20204;-61
2022/03/02 10:47:53;;;;;;;8.73;6.60;;;12.90;63.40;;;;;;5093433;28;20209;-62
2022/03/02 10:50:21;;;;;;;8.63;6.30;;;12.80;63.70;;;;;;5093276;28;20305;-60
2022/03/02 10:52:49;;;;;;;9.70;6.30;;;13.00;64.20;;;;;;5093774;28;20315;-60
2022/03/02 10:55:16;;;;;;;8.23;6.40;;;13.40;63.10;;;;;;5093366;28;20679;-60
2022/03/02 10:57:47;;;;;;;11.33;6.50;;;13.60;62.30;;;;;;5094249;28;20220;-62
2022/03/02 11:00:17;;;;;;;10.27;6.90;;;13.90;61.60;;;;;;5093530;28;20204;-60
2022/03/02 11:02:48;;;;;;;7.67;6.77;;;14.00;61.30;;;;;;5093282;28;20261;-61
2022/03/02 11:05:17;;;;;;;6.80;6.10;;;13.90;60.40;;;;;;5093273;28;20205;-60
2022/03/02 11:07:43;;;;;;;9.33;6.60;;;13.00;62.30;;;;;;5093118;28;20235;-60
2022/03/02 11:10:12;;;;;;;8.37;7.07;;;12.70;63.20;;;;;;5093127;28;20596;-62
2022/03/02 11:12:42;;;;;;;8.73;6.60;;;12.60;63.20;;;;;;5094419;28;20208;-61
2022/03/02 11:15:10;;;;;;;7.80;6.00;;;12.60;63.40;;;;;;5094373;28;20295;-60
2022/03/02 11:17:51;;;;;;;12.93;7.27;;;12.30;65.10;;;;;;5093306;28;20204;-62
2022/03/02 11:20:17;;;;;;;8.53;6.80;;;12.30;64.80;;;;;;5093344;28;20200;-62
2022/03/02 11:22:52;;;;;;;11.70;7.83;;;12.40;64.40;;;;;;5092851;28;20269;-64
2022/03/02 11:25:19;;;;;;;9.87;6.73;;;12.00;65.00;;;;;;5092495;28;20209;-63
2022/03/02 11:27:46;;;;;;;10.27;6.30;;;11.70;65.80;;;;;;5092743;28;20227;-64
2022/03/02 11:30:16;;;;;;;8.97;6.50;;;11.50;66.60;;;;;;5092406;28;20782;-62
2022/03/02 11:32:45;;;;;;;9.40;6.83;;;11.50;67.40;;;;;;5092235;28;20606;-61
2022/03/02 11:35:14;;;;;;;8.73;7.00;;;11.70;66.80;;;;;;5092150;28;20232;-61
2022/03/02 11:37:42;;;;;;;12.33;6.70;;;11.90;66.20;;;;;;5091931;28;20695;-60
2022/03/02 11:40:11;;;;;;;11.23;6.57;;;11.90;66.90;;;;;;5092389;28;20204;-60
2022/03/02 11:42:41;;;;;;;12.30;9.40;;;11.50;68.00;;;;;;5092518;28;20208;-62
2022/03/02 11:45:11;;;;;;;12.50;8.70;;;11.30;68.90;;;;;;5092159;28;20235;-58
2022/03/02 11:47:40;;;;;;;13.90;6.83;;;11.30;69.00;;;;;;5092242;28;20208;-59
2022/03/02 11:50:11;;;;;;;11.23;6.90;;;11.70;68.30;;;;;;5091802;28;20246;-60
2022/03/02 11:52:46;;;;;;;8.80;5.87;;;11.70;68.20;;;;;;5092475;28;20204;-58
2022/03/02 11:55:16;;;;;;;8.20;6.57;;;11.50;68.30;;;;;;5092839;28;20299;-59
2022/03/02 11:57:47;;;;;;;13.40;6.70;;;11.40;68.90;;;;;;5092297;28;20239;-59
2022/03/02 12:00:17;;;;;;;9.47;6.60;;;11.60;68.80;;;;;;5091989;28;20223;-60
2022/03/02 12:02:45;;;;;;;8.47;6.60;;;11.70;68.20;;;;;;5092196;28;20287;-60
2022/03/02 12:05:15;;;;;;;11.30;6.93;;;11.70;68.40;;;;;;5092344;28;20200;-60
2022/03/02 12:07:44;;;;;;;7.30;6.03;;;11.80;66.90;;;;;;5092087;28;20219;-59
2022/03/02 12:10:21;;;;;;;10.60;6.80;;;11.60;66.70;;;;;;5091807;28;20227;-59
2022/03/02 12:12:49;;;;;;;11.17;7.47;;;11.70;66.80;;;;;;5092049;28;20605;-59
2022/03/02 12:15:16;;;;;;;11.60;7.33;;;11.80;67.70;;;;;;5092078;28;20272;-60
2022/03/02 12:17:42;;;;;;;10.03;6.33;;;11.90;66.90;;;;;;5091300;28;20593;-59
2022/03/02 12:20:12;;;;;;;11.43;6.73;;;12.00;67.10;;;;;;5092171;28;20204;-60
2022/03/02 12:22:42;;;;;;;11.27;7.27;;;12.30;67.20;;;;;;5091650;28;20211;-59
2022/03/02 12:25:11;;;;;;;10.80;6.83;;;12.20;66.70;;;;;;5092361;28;20207;-59
2022/03/02 12:27:39;;;;;;;9.50;7.50;;;12.40;66.10;;;;;;5091703;28;20215;-60
2022/03/02 12:30:08;;;;;;;11.37;7.27;;;12.20;65.90;;;;;;5091484;28;20224;-60
2022/03/02 12:32:37;;;;;;;10.13;6.40;;;11.60;66.70;;;;;;5092078;28;20299;-60
2022/03/02 12:35:07;;;;;;;10.00;6.60;;;11.20;67.80;;;;;;5092045;28;20208;-59
2022/03/02 12:37:33;;;;;;;11.87;7.03;;;10.80;68.60;;;;;;5091229;28;20208;-59
2022/03/02 12:40:02;;;;;;;10.07;6.80;;;10.70;69.60;;;;;;5091358;28;20204;-59
2022/03/02 12:42:29;;;;;;;9.97;7.60;;;10.80;69.60;;;;;;5092200;28;20212;-59
2022/03/02 12:44:57;;;;;;;11.33;6.97;;;10.90;69.10;;;;;;5093031;28;20575;-59
2022/03/02 12:47:26;;;;;;;11.83;7.07;;;10.80;69.30;;;;;;5095628;28;20200;-60
2022/03/02 12:49:54;;;;;;;12.70;6.90;;;10.70;69.40;;;;;;5095322;28;20224;-60
2022/03/02 12:52:24;;;;;;;12.47;7.50;;;10.80;70.10;;;;;;5095751;28;20317;-59